Beckley, West Virginia
Current Conditions -  °F | °C
As of 4:51 AM on Saturday 20 Dec 2014 (Local Time) from KBKW Reporting Station
Overcast Overcast  
Wind Chill: 26°   Ceiling: 11000
Heat Index: 26°   Visibility: 10mi
Dew Point: 21°   Wind: 3mph
Humidity: 81%   Direction: 130°SE
Pressure: 30.14"   Gusts: NA
Location:  37.78°N, 81.19°W
Report Text: KBKW 200951Z AUTO 13003KT 10SM OVC110 M03/M06 A3014 RMK AO2 SLP242 T10331061
Loading
Personal Weather Stations






























Interactive Weather Map New forecast layout! Learn more

10-Day Weather Forecast

Advertisements
Track Severe Weather on mobile